PWSweather.com
Personal Weather Stations
Station Observations
SELKIRK1
Ontario, Selkirk, ON N0A 1P0

OntarioSelkirk, ON N0A 1P0

Lat: 42.8083652, Lon: -79.94971040000001

Elevation: 583

Station Type: Acurite 5 in 1

http://gavinsurf.com

High Low Average
Temperature 77.6°F25.3°C 61.2°F16.2°C 66.5°F19.2°C
Dew Point 67.2°F19.6°C 59.0°F15.0°C 62.2°F16.8°C
Winds 8.1 mph 13.0 kmh Calm Calm 2.0 mph SE3.2 kmh SE
Wind Gusts 8.1 mph13.0 kmh -- 2.0 mph3.2 kmh
Humidity 99% 68% 87%
Pressure 31.86 in1078.9 mb 31.86 in1078.9 mb -
Precipitation 0.01 in0.3 mm - -
Hour Temp Dew Point Humidity Winds Wind Gusts Pressure Precip Precip Rate Daily Precip Total
12:00 AM 65.1°F18.4°C 60.8°F16.0°C 86% Calm Calm -- 31.86 in1078.9 mb - 0.00 in0.0 mm 0.00 in0.0 mm
12:10 AM 65.0°F18.3°C 61.0°F16.1°C 87% Calm Calm -- 31.86 in1078.9 mb - 0.00 in0.0 mm 0.00 in0.0 mm
12:15 AM 65.0°F18.3°C 61.0°F16.1°C 87% 1.2 mph NNE1.9 kmh NNE 1.2 mph1.9 kmh 31.86 in1078.9 mb - 0.00 in0.0 mm 0.00 in0.0 mm
12:20 AM 64.8°F18.2°C 60.8°F16.0°C 87% Calm Calm 2.3 mph3.7 kmh 31.86 in1078.9 mb - 0.00 in0.0 mm 0.00 in0.0 mm
12:25 AM 64.8°F18.2°C 60.8°F16.0°C 87% 3.5 mph N5.6 kmh N 4.6 mph7.4 kmh 31.86 in1078.9 mb - 0.00 in0.0 mm 0.00 in0.0 mm
12:30 AM 65.0°F18.3°C 61.0°F16.1°C 87% 2.3 mph N3.7 kmh N 2.3 mph3.7 kmh 31.86 in1078.9 mb - 0.00 in0.0 mm 0.00 in0.0 mm
12:35 AM 65.0°F18.3°C 61.0°F16.1°C 87% Calm Calm 1.2 mph1.9 kmh 31.86 in1078.9 mb - 0.00 in0.0 mm 0.00 in0.0 mm
12:40 AM 65.0°F18.3°C 61.0°F16.1°C 87% Calm Calm -- 31.86 in1078.9 mb - 0.00 in0.0 mm 0.00 in0.0 mm
12:45 AM 65.0°F18.3°C 61.0°F16.1°C 87% Calm Calm -- 31.86 in1078.9 mb - 0.00 in0.0 mm 0.00 in0.0 mm
12:50 AM 64.8°F18.2°C 60.8°F16.0°C 87% Calm Calm 1.2 mph1.9 kmh 31.86 in1078.9 mb - 0.00 in0.0 mm 0.00 in0.0 mm
12:55 AM 64.8°F18.2°C 60.8°F16.0°C 87% Calm Calm -- 31.86 in1078.9 mb - 0.00 in0.0 mm 0.00 in0.0 mm
01:00 AM 64.6°F18.1°C 60.6°F15.9°C 87% 1.2 mph NE1.9 kmh NE 1.2 mph1.9 kmh 31.86 in1078.9 mb - 0.00 in0.0 mm 0.00 in0.0 mm
01:10 AM 64.6°F18.1°C 60.9°F16.1°C 88% 2.3 mph NNE3.7 kmh NNE 2.3 mph3.7 kmh 31.86 in1078.9 mb - 0.00 in0.0 mm 0.00 in0.0 mm
01:15 AM 64.6°F18.1°C 60.9°F16.1°C 88% Calm Calm 1.2 mph1.9 kmh 31.86 in1078.9 mb - 0.00 in0.0 mm 0.00 in0.0 mm
01:20 AM 64.6°F18.1°C 60.9°F16.1°C 88% Calm Calm 1.2 mph1.9 kmh 31.86 in1078.9 mb - 0.00 in0.0 mm 0.00 in0.0 mm
01:25 AM 64.6°F18.1°C 60.9°F16.1°C 88% 1.2 mph ENE1.9 kmh ENE 1.2 mph1.9 kmh 31.86 in1078.9 mb - 0.00 in0.0 mm 0.00 in0.0 mm
01:30 AM 64.6°F18.1°C 60.6°F15.9°C 87% Calm Calm -- 31.86 in1078.9 mb - 0.00 in0.0 mm 0.00 in0.0 mm
01:35 AM 64.4°F18.0°C 60.1°F15.6°C 86% Calm Calm -- 31.86 in1078.9 mb - 0.00 in0.0 mm 0.00 in0.0 mm
01:40 AM 64.4°F18.0°C 60.1°F15.6°C 86% Calm Calm -- 31.86 in1078.9 mb - 0.00 in0.0 mm 0.00 in0.0 mm
01:45 AM 64.4°F18.0°C 60.1°F15.6°C 86% Calm Calm -- 31.86 in1078.9 mb - 0.00 in0.0 mm 0.00 in0.0 mm
01:50 AM 64.4°F18.0°C 60.1°F15.6°C 86% Calm Calm -- 31.86 in1078.9 mb - 0.00 in0.0 mm 0.00 in0.0 mm
01:55 AM 64.4°F18.0°C 60.1°F15.6°C 86% Calm Calm -- 31.86 in1078.9 mb - 0.00 in0.0 mm 0.00 in0.0 mm
02:00 AM 64.4°F18.0°C 60.1°F15.6°C 86% 1.2 mph NNE1.9 kmh NNE 2.3 mph3.7 kmh 31.86 in1078.9 mb - 0.00 in0.0 mm 0.00 in0.0 mm
02:10 AM 64.4°F18.0°C 60.1°F15.6°C 86% Calm Calm -- 31.86 in1078.9 mb - 0.00 in0.0 mm 0.00 in0.0 mm
02:15 AM 64.4°F18.0°C 60.4°F15.8°C 87% Calm Calm -- 31.86 in1078.9 mb - 0.00 in0.0 mm 0.00 in0.0 mm
02:20 AM 64.4°F18.0°C 60.4°F15.8°C 87% Calm Calm -- 31.86 in1078.9 mb - 0.00 in0.0 mm 0.00 in0.0 mm
02:25 AM 64.4°F18.0°C 60.7°F15.9°C 88% Calm Calm -- 31.86 in1078.9 mb - 0.00 in0.0 mm 0.00 in0.0 mm
02:30 AM 64.2°F17.9°C 60.6°F15.9°C 88% Calm Calm -- 31.86 in1078.9 mb - 0.00 in0.0 mm 0.00 in0.0 mm
02:35 AM 64.2°F17.9°C 60.6°F15.9°C 88% Calm Calm -- 31.86 in1078.9 mb - 0.00 in0.0 mm 0.00 in0.0 mm
02:40 AM 64.1°F17.8°C 60.5°F15.8°C 88% Calm Calm -- 31.86 in1078.9 mb - 0.00 in0.0 mm 0.00 in0.0 mm
02:45 AM 64.1°F17.8°C 60.5°F15.8°C 88% Calm Calm -- 31.86 in1078.9 mb - 0.00 in0.0 mm 0.00 in0.0 mm
02:50 AM 64.1°F17.8°C 60.5°F15.8°C 88% Calm Calm -- 31.86 in1078.9 mb - 0.00 in0.0 mm 0.00 in0.0 mm
02:55 AM 64.1°F17.8°C 60.5°F15.8°C 88% Calm Calm -- 31.86 in1078.9 mb - 0.00 in0.0 mm 0.00 in0.0 mm
03:00 AM 64.1°F17.8°C 60.5°F15.8°C 88% Calm Calm -- 31.86 in1078.9 mb - 0.00 in0.0 mm 0.00 in0.0 mm
03:10 AM 64.1°F17.8°C 60.5°F15.8°C 88% Calm Calm -- 31.86 in1078.9 mb - 0.00 in0.0 mm 0.00 in0.0 mm
03:15 AM 64.1°F17.8°C 60.5°F15.8°C 88% Calm Calm -- 31.86 in1078.9 mb - 0.00 in0.0 mm 0.00 in0.0 mm
03:20 AM 63.9°F17.7°C 60.3°F15.7°C 88% Calm Calm -- 31.86 in1078.9 mb - 0.00 in0.0 mm 0.00 in0.0 mm
03:25 AM 63.9°F17.7°C 59.9°F15.5°C 87% Calm Calm -- 31.86 in1078.9 mb - 0.00 in0.0 mm 0.00 in0.0 mm
03:30 AM 63.9°F17.7°C 59.9°F15.5°C 87% Calm Calm -- 31.86 in1078.9 mb - 0.00 in0.0 mm 0.00 in0.0 mm
03:35 AM 63.7°F17.6°C 59.7°F15.4°C 87% Calm Calm -- 31.86 in1078.9 mb - 0.00 in0.0 mm 0.00 in0.0 mm
03:40 AM 63.7°F17.6°C 59.7°F15.4°C 87% Calm Calm -- 31.86 in1078.9 mb - 0.00 in0.0 mm 0.00 in0.0 mm
03:45 AM 63.7°F17.6°C 59.7°F15.4°C 87% Calm Calm -- 31.86 in1078.9 mb - 0.00 in0.0 mm 0.00 in0.0 mm
03:50 AM 63.7°F17.6°C 59.7°F15.4°C 87% Calm Calm -- 31.86 in1078.9 mb - 0.00 in0.0 mm 0.00 in0.0 mm
03:55 AM 63.7°F17.6°C 59.7°F15.4°C 87% Calm Calm -- 31.86 in1078.9 mb - 0.00 in0.0 mm 0.00 in0.0 mm
04:00 AM 63.5°F17.5°C 59.5°F15.3°C 87% Calm Calm -- 31.86 in1078.9 mb - 0.00 in0.0 mm 0.00 in0.0 mm
04:10 AM 63.5°F17.5°C 59.9°F15.5°C 88% 1.2 mph NNE1.9 kmh NNE 1.2 mph1.9 kmh 31.86 in1078.9 mb - 0.00 in0.0 mm 0.00 in0.0 mm
04:15 AM 63.5°F17.5°C 60.2°F15.7°C 89% 1.2 mph NNE1.9 kmh NNE 1.2 mph1.9 kmh 31.86 in1078.9 mb - 0.00 in0.0 mm 0.00 in0.0 mm
04:20 AM 63.5°F17.5°C 59.9°F15.5°C 88% Calm Calm -- 31.86 in1078.9 mb - 0.00 in0.0 mm 0.00 in0.0 mm
04:25 AM 63.5°F17.5°C 59.9°F15.5°C 88% Calm Calm -- 31.86 in1078.9 mb - 0.00 in0.0 mm 0.00 in0.0 mm
04:30 AM 63.4°F17.4°C 59.7°F15.4°C 88% Calm Calm -- 31.86 in1078.9 mb - 0.00 in0.0 mm 0.00 in0.0 mm
04:35 AM 63.3°F17.4°C 59.7°F15.4°C 88% Calm Calm -- 31.86 in1078.9 mb - 0.00 in0.0 mm 0.00 in0.0 mm
04:40 AM 63.3°F17.4°C 60.0°F15.6°C 89% 3.5 mph N5.6 kmh N 3.5 mph5.6 kmh 31.86 in1078.9 mb - 0.00 in0.0 mm 0.00 in0.0 mm
04:45 AM 63.3°F17.4°C 59.7°F15.4°C 88% 2.3 mph N3.7 kmh N 2.3 mph3.7 kmh 31.86 in1078.9 mb - 0.00 in0.0 mm 0.00 in0.0 mm
04:50 AM 63.5°F17.5°C 59.9°F15.5°C 88% 2.3 mph NE3.7 kmh NE 1.2 mph1.9 kmh 31.86 in1078.9 mb - 0.00 in0.0 mm 0.00 in0.0 mm
04:55 AM 63.5°F17.5°C 59.5°F15.3°C 87% Calm Calm -- 31.86 in1078.9 mb - 0.00 in0.0 mm 0.00 in0.0 mm
05:00 AM 63.5°F17.5°C 59.9°F15.5°C 88% 2.3 mph NNE3.7 kmh NNE 2.3 mph3.7 kmh 31.86 in1078.9 mb - 0.00 in0.0 mm 0.00 in0.0 mm
05:10 AM 63.5°F17.5°C 59.9°F15.5°C 88% 1.2 mph ENE1.9 kmh ENE 1.2 mph1.9 kmh 31.86 in1078.9 mb - 0.00 in0.0 mm 0.00 in0.0 mm
05:15 AM 63.5°F17.5°C 59.9°F15.5°C 88% Calm Calm -- 31.86 in1078.9 mb - 0.00 in0.0 mm 0.00 in0.0 mm
05:20 AM 63.5°F17.5°C 59.9°F15.5°C 88% Calm Calm 2.3 mph3.7 kmh 31.86 in1078.9 mb - 0.00 in0.0 mm 0.00 in0.0 mm
05:25 AM 63.5°F17.5°C 59.9°F15.5°C 88% 1.2 mph ENE1.9 kmh ENE 1.2 mph1.9 kmh 31.86 in1078.9 mb - 0.00 in0.0 mm 0.00 in0.0 mm
05:30 AM 63.5°F17.5°C 59.5°F15.3°C 87% 1.2 mph ENE1.9 kmh ENE -- 31.86 in1078.9 mb - 0.00 in0.0 mm 0.00 in0.0 mm
05:35 AM 63.5°F17.5°C 59.5°F15.3°C 87% Calm Calm -- 31.86 in1078.9 mb - 0.00 in0.0 mm 0.00 in0.0 mm
05:40 AM 63.5°F17.5°C 59.5°F15.3°C 87% Calm Calm -- 31.86 in1078.9 mb - 0.00 in0.0 mm 0.00 in0.0 mm
05:45 AM 63.5°F17.5°C 59.5°F15.3°C 87% Calm Calm 1.2 mph1.9 kmh 31.86 in1078.9 mb - 0.00 in0.0 mm 0.00 in0.0 mm
05:50 AM 63.5°F17.5°C 59.5°F15.3°C 87% Calm Calm -- 31.86 in1078.9 mb - 0.00 in0.0 mm 0.00 in0.0 mm
05:55 AM 63.5°F17.5°C 59.5°F15.3°C 87% Calm Calm 1.2 mph1.9 kmh 31.86 in1078.9 mb - 0.00 in0.0 mm 0.00 in0.0 mm
06:00 AM 63.5°F17.5°C 59.5°F15.3°C 87% Calm Calm -- 31.86 in1078.9 mb - 0.01 in0.3 mm 0.01 in0.3 mm
06:10 AM 63.5°F17.5°C 59.5°F15.3°C 87% 1.2 mph NNE1.9 kmh NNE 2.3 mph3.7 kmh 31.86 in1078.9 mb - 0.01 in0.3 mm 0.01 in0.3 mm
06:15 AM 63.5°F17.5°C 59.9°F15.5°C 88% 2.3 mph NNE3.7 kmh NNE 2.3 mph3.7 kmh 31.86 in1078.9 mb - 0.01 in0.3 mm 0.01 in0.3 mm
06:20 AM 63.5°F17.5°C 59.9°F15.5°C 88% 2.3 mph 3.7 kmh 2.3 mph3.7 kmh 31.86 in1078.9 mb - 0.01 in0.3 mm 0.01 in0.3 mm
06:25 AM 63.5°F17.5°C 59.9°F15.5°C 88% Calm Calm -- 31.86 in1078.9 mb - 0.01 in0.3 mm 0.01 in0.3 mm
06:30 AM 63.5°F17.5°C 59.9°F15.5°C 88% Calm Calm 1.2 mph1.9 kmh 31.86 in1078.9 mb - 0.01 in0.3 mm 0.01 in0.3 mm
06:35 AM 63.5°F17.5°C 59.9°F15.5°C 88% 2.3 mph N3.7 kmh N 2.3 mph3.7 kmh 31.86 in1078.9 mb - 0.01 in0.3 mm 0.01 in0.3 mm
06:40 AM 63.5°F17.5°C 59.9°F15.5°C 88% 3.5 mph N5.6 kmh N 3.5 mph5.6 kmh 31.86 in1078.9 mb - 0.01 in0.3 mm 0.01 in0.3 mm
06:45 AM 63.7°F17.6°C 60.1°F15.6°C 88% 3.5 mph NNE5.6 kmh NNE 4.6 mph7.4 kmh 31.86 in1078.9 mb - 0.01 in0.3 mm 0.01 in0.3 mm
06:50 AM 63.7°F17.6°C 60.1°F15.6°C 88% 3.5 mph NNE5.6 kmh NNE 3.5 mph5.6 kmh 31.86 in1078.9 mb - 0.01 in0.3 mm 0.01 in0.3 mm
06:55 AM 63.7°F17.6°C 60.1°F15.6°C 88% 3.5 mph NNE5.6 kmh NNE 2.3 mph3.7 kmh 31.86 in1078.9 mb - 0.01 in0.3 mm 0.01 in0.3 mm
07:00 AM 63.7°F17.6°C 60.1°F15.6°C 88% Calm Calm 1.2 mph1.9 kmh 31.86 in1078.9 mb - 0.00 in0.0 mm 0.01 in0.3 mm
07:10 AM 63.7°F17.6°C 59.4°F15.2°C 86% 2.3 mph ENE3.7 kmh ENE 1.2 mph1.9 kmh 31.86 in1078.9 mb - 0.00 in0.0 mm 0.01 in0.3 mm
07:15 AM 63.7°F17.6°C 59.7°F15.4°C 87% 3.5 mph NE5.6 kmh NE 4.6 mph7.4 kmh 31.86 in1078.9 mb - 0.00 in0.0 mm 0.01 in0.3 mm
07:20 AM 63.7°F17.6°C 59.1°F15.1°C 85% 2.3 mph E3.7 kmh E 2.3 mph3.7 kmh 31.86 in1078.9 mb - 0.00 in0.0 mm 0.01 in0.3 mm
07:25 AM 63.7°F17.6°C 59.4°F15.2°C 86% 4.6 mph NNE7.4 kmh NNE 5.8 mph9.3 kmh 31.86 in1078.9 mb - 0.00 in0.0 mm 0.01 in0.3 mm
07:30 AM 63.7°F17.6°C 59.7°F15.4°C 87% 2.3 mph NE3.7 kmh NE 3.5 mph5.6 kmh 31.86 in1078.9 mb - 0.00 in0.0 mm 0.01 in0.3 mm
07:35 AM 63.5°F17.5°C 59.9°F15.5°C 88% 2.3 mph NE3.7 kmh NE 2.3 mph3.7 kmh 31.86 in1078.9 mb - 0.00 in0.0 mm 0.01 in0.3 mm
07:40 AM 63.2°F17.3°C 59.6°F15.3°C 88% 1.2 mph E1.9 kmh E 1.2 mph1.9 kmh 31.86 in1078.9 mb - 0.00 in0.0 mm 0.01 in0.3 mm
07:45 AM 63.0°F17.2°C 59.7°F15.4°C 89% 2.3 mph E3.7 kmh E 2.3 mph3.7 kmh 31.86 in1078.9 mb - 0.00 in0.0 mm 0.01 in0.3 mm
07:50 AM 62.6°F17.0°C 59.4°F15.2°C 89% 1.2 mph E1.9 kmh E 1.2 mph1.9 kmh 31.86 in1078.9 mb - 0.00 in0.0 mm 0.01 in0.3 mm
07:55 AM 62.6°F17.0°C 59.0°F15.0°C 88% 1.2 mph E1.9 kmh E 1.2 mph1.9 kmh 31.86 in1078.9 mb - 0.00 in0.0 mm 0.01 in0.3 mm
08:00 AM 62.4°F16.9°C 59.5°F15.3°C 90% 1.2 mph E1.9 kmh E 1.2 mph1.9 kmh 31.86 in1078.9 mb - 0.00 in0.0 mm 0.01 in0.3 mm
08:10 AM 62.1°F16.7°C 59.4°F15.2°C 91% 2.3 mph NE3.7 kmh NE 2.3 mph3.7 kmh 31.86 in1078.9 mb - 0.00 in0.0 mm 0.01 in0.3 mm
08:15 AM 62.0°F16.7°C 59.9°F15.5°C 93% 1.2 mph NE1.9 kmh NE 3.5 mph5.6 kmh 31.86 in1078.9 mb - 0.00 in0.0 mm 0.01 in0.3 mm
08:20 AM 61.7°F16.5°C 59.9°F15.5°C 94% 4.6 mph NE7.4 kmh NE 4.6 mph7.4 kmh 31.86 in1078.9 mb - 0.00 in0.0 mm 0.01 in0.3 mm
08:30 AM 61.7°F16.5°C 59.6°F15.3°C 93% 1.2 mph E1.9 kmh E 3.5 mph5.6 kmh 31.86 in1078.9 mb - 0.00 in0.0 mm 0.01 in0.3 mm
08:35 AM 61.9°F16.6°C 59.8°F15.4°C 93% 8.1 mph N13.0 kmh N 8.1 mph13.0 kmh 31.86 in1078.9 mb - 0.00 in0.0 mm 0.01 in0.3 mm
08:40 AM 62.1°F16.7°C 59.7°F15.4°C 92% 5.8 mph N9.3 kmh N 6.9 mph11.1 kmh 31.86 in1078.9 mb - 0.00 in0.0 mm 0.01 in0.3 mm
08:45 AM 62.1°F16.7°C 59.5°F15.3°C 91% 5.8 mph NNE9.3 kmh NNE 5.8 mph9.3 kmh 31.86 in1078.9 mb - 0.00 in0.0 mm 0.01 in0.3 mm
08:55 AM 62.3°F16.8°C 59.9°F15.5°C 92% 4.6 mph NNE7.4 kmh NNE 5.8 mph9.3 kmh 31.86 in1078.9 mb - 0.00 in0.0 mm 0.01 in0.3 mm
09:00 AM 62.4°F16.9°C 59.7°F15.4°C 91% 1.2 mph NE1.9 kmh NE 2.3 mph3.7 kmh 31.86 in1078.9 mb - 0.00 in0.0 mm 0.01 in0.3 mm
09:10 AM 62.6°F17.0°C 59.9°F15.5°C 91% 2.3 mph E3.7 kmh E 2.3 mph3.7 kmh 31.86 in1078.9 mb - 0.00 in0.0 mm 0.01 in0.3 mm
09:15 AM 62.8°F17.1°C 60.1°F15.6°C 91% 1.2 mph NE1.9 kmh NE 3.5 mph5.6 kmh 31.86 in1078.9 mb - 0.00 in0.0 mm 0.01 in0.3 mm
09:20 AM 62.8°F17.1°C 60.2°F15.7°C 91% 1.2 mph ESE1.9 kmh ESE 1.2 mph1.9 kmh 31.86 in1078.9 mb - 0.00 in0.0 mm 0.01 in0.3 mm
09:25 AM 63.2°F17.3°C 60.5°F15.8°C 91% Calm Calm -- 31.86 in1078.9 mb - 0.00 in0.0 mm 0.01 in0.3 mm
09:30 AM 63.5°F17.5°C 60.8°F16.0°C 91% 1.2 mph SW1.9 kmh SW 2.3 mph3.7 kmh 31.86 in1078.9 mb - 0.00 in0.0 mm 0.01 in0.3 mm
09:35 AM 63.7°F17.6°C 60.4°F15.8°C 89% 2.3 mph SSW3.7 kmh SSW 2.3 mph3.7 kmh 31.86 in1078.9 mb - 0.00 in0.0 mm 0.01 in0.3 mm
09:40 AM 63.7°F17.6°C 60.4°F15.8°C 89% 2.3 mph WSW3.7 kmh WSW 2.3 mph3.7 kmh 31.86 in1078.9 mb - 0.00 in0.0 mm 0.01 in0.3 mm
09:45 AM 63.9°F17.7°C 60.9°F16.1°C 90% Calm Calm -- 31.86 in1078.9 mb - 0.00 in0.0 mm 0.01 in0.3 mm
09:50 AM 64.1°F17.8°C 60.5°F15.8°C 88% 2.3 mph WNW3.7 kmh WNW 2.3 mph3.7 kmh 31.86 in1078.9 mb - 0.00 in0.0 mm 0.01 in0.3 mm
09:55 AM 64.2°F17.9°C 60.6°F15.9°C 88% 2.3 mph NNE3.7 kmh NNE 3.5 mph5.6 kmh 31.86 in1078.9 mb - 0.00 in0.0 mm 0.01 in0.3 mm
10:00 AM 64.4°F18.0°C 61.4°F16.3°C 90% 4.6 mph N7.4 kmh N 5.8 mph9.3 kmh 31.86 in1078.9 mb - 0.00 in0.0 mm 0.01 in0.3 mm
10:10 AM 64.8°F18.2°C 61.8°F16.6°C 90% 2.3 mph S3.7 kmh S 2.3 mph3.7 kmh 31.86 in1078.9 mb - 0.00 in0.0 mm 0.01 in0.3 mm
10:15 AM 65.3°F18.5°C 62.3°F16.8°C 90% 3.5 mph SW5.6 kmh SW 6.9 mph11.1 kmh 31.86 in1078.9 mb - 0.00 in0.0 mm 0.01 in0.3 mm
10:20 AM 65.0°F18.3°C 61.7°F16.5°C 89% 3.5 mph SSW5.6 kmh SSW 4.6 mph7.4 kmh 31.86 in1078.9 mb - 0.00 in0.0 mm 0.01 in0.3 mm
10:25 AM 64.8°F18.2°C 61.5°F16.4°C 89% 2.3 mph SW3.7 kmh SW 2.3 mph3.7 kmh 31.86 in1078.9 mb - 0.00 in0.0 mm 0.01 in0.3 mm
10:30 AM 64.8°F18.2°C 61.1°F16.2°C 88% 2.3 mph SW3.7 kmh SW 2.3 mph3.7 kmh 31.86 in1078.9 mb - 0.00 in0.0 mm 0.01 in0.3 mm
10:35 AM 64.8°F18.2°C 61.5°F16.4°C 89% 1.2 mph SW1.9 kmh SW 1.2 mph1.9 kmh 31.86 in1078.9 mb - 0.00 in0.0 mm 0.01 in0.3 mm
10:40 AM 64.8°F18.2°C 61.1°F16.2°C 88% 2.3 mph NE3.7 kmh NE 2.3 mph3.7 kmh 31.86 in1078.9 mb - 0.00 in0.0 mm 0.01 in0.3 mm
10:45 AM 64.8°F18.2°C 61.1°F16.2°C 88% Calm Calm -- 31.86 in1078.9 mb - 0.00 in0.0 mm 0.01 in0.3 mm
10:50 AM 64.9°F18.3°C 61.3°F16.3°C 88% Calm Calm -- 31.86 in1078.9 mb - 0.00 in0.0 mm 0.01 in0.3 mm
10:55 AM 65.0°F18.3°C 61.0°F16.1°C 87% Calm Calm -- 31.86 in1078.9 mb - 0.00 in0.0 mm 0.01 in0.3 mm
11:00 AM 65.0°F18.3°C 61.0°F16.1°C 87% Calm Calm -- 31.86 in1078.9 mb - 0.00 in0.0 mm 0.01 in0.3 mm
11:10 AM 65.1°F18.4°C 60.1°F15.6°C 84% Calm Calm -- 31.86 in1078.9 mb - 0.00 in0.0 mm 0.01 in0.3 mm
11:15 AM 65.1°F18.4°C 60.5°F15.8°C 85% Calm Calm -- 31.86 in1078.9 mb - 0.00 in0.0 mm 0.01 in0.3 mm
11:20 AM 65.3°F18.5°C 60.3°F15.7°C 84% Calm Calm -- 31.86 in1078.9 mb - 0.00 in0.0 mm 0.01 in0.3 mm
11:25 AM 65.6°F18.7°C 61.0°F16.1°C 85% Calm Calm -- 31.86 in1078.9 mb - 0.00 in0.0 mm 0.01 in0.3 mm
11:30 AM 65.9°F18.8°C 61.2°F16.2°C 85% Calm Calm -- 31.86 in1078.9 mb - 0.00 in0.0 mm 0.01 in0.3 mm
11:35 AM 66.1°F18.9°C 60.1°F15.6°C 81% Calm Calm -- 31.86 in1078.9 mb - 0.00 in0.0 mm 0.01 in0.3 mm
11:40 AM 66.5°F19.2°C 60.9°F16.1°C 82% 1.2 mph NE1.9 kmh NE 2.3 mph3.7 kmh 31.86 in1078.9 mb - 0.00 in0.0 mm 0.01 in0.3 mm
11:45 AM 66.6°F19.2°C 60.3°F15.7°C 80% 1.2 mph E1.9 kmh E 1.2 mph1.9 kmh 31.86 in1078.9 mb - 0.00 in0.0 mm 0.01 in0.3 mm
11:50 AM 66.8°F19.3°C 60.8°F16.0°C 81% 3.5 mph N5.6 kmh N 3.5 mph5.6 kmh 31.86 in1078.9 mb - 0.00 in0.0 mm 0.01 in0.3 mm
11:55 AM 66.8°F19.3°C 60.8°F16.0°C 81% 1.2 mph E1.9 kmh E 1.2 mph1.9 kmh 31.86 in1078.9 mb - 0.00 in0.0 mm 0.01 in0.3 mm
12:00 PM 66.8°F19.3°C 62.1°F16.7°C 85% Calm Calm -- 31.86 in1078.9 mb - 0.00 in0.0 mm 0.01 in0.3 mm
12:10 PM 67.2°F19.6°C 62.5°F16.9°C 85% Calm Calm 1.2 mph1.9 kmh 31.86 in1078.9 mb - 0.00 in0.0 mm 0.01 in0.3 mm
12:15 PM 68.4°F20.2°C 62.7°F17.1°C 82% 1.2 mph ESE1.9 kmh ESE 1.2 mph1.9 kmh 31.86 in1078.9 mb - 0.00 in0.0 mm 0.01 in0.3 mm
12:20 PM 68.4°F20.2°C 62.0°F16.7°C 80% 1.2 mph E1.9 kmh E 1.2 mph1.9 kmh 31.86 in1078.9 mb - 0.00 in0.0 mm 0.01 in0.3 mm
12:25 PM 69.3°F20.7°C 60.6°F15.9°C 74% 1.2 mph E1.9 kmh E 2.3 mph3.7 kmh 31.86 in1078.9 mb - 0.00 in0.0 mm 0.01 in0.3 mm
12:30 PM 68.7°F20.4°C 61.9°F16.6°C 79% 1.2 mph E1.9 kmh E 1.2 mph1.9 kmh 31.86 in1078.9 mb - 0.00 in0.0 mm 0.01 in0.3 mm
12:35 PM 68.9°F20.5°C 61.7°F16.5°C 78% 1.2 mph ESE1.9 kmh ESE 2.3 mph3.7 kmh 31.86 in1078.9 mb - 0.00 in0.0 mm 0.01 in0.3 mm
12:40 PM 69.1°F20.6°C 62.3°F16.8°C 79% 1.2 mph E1.9 kmh E 1.2 mph1.9 kmh 31.86 in1078.9 mb - 0.00 in0.0 mm 0.01 in0.3 mm
12:45 PM 69.1°F20.6°C 62.3°F16.8°C 79% 1.2 mph E1.9 kmh E 1.2 mph1.9 kmh 31.86 in1078.9 mb - 0.00 in0.0 mm 0.01 in0.3 mm
12:50 PM 69.0°F20.6°C 61.1°F16.2°C 76% 2.3 mph E3.7 kmh E 2.3 mph3.7 kmh 31.86 in1078.9 mb - 0.00 in0.0 mm 0.01 in0.3 mm
12:55 PM 69.6°F20.9°C 62.0°F16.7°C 77% 1.2 mph ENE1.9 kmh ENE 2.3 mph3.7 kmh 31.86 in1078.9 mb - 0.00 in0.0 mm 0.01 in0.3 mm
01:00 PM 69.3°F20.7°C 62.1°F16.7°C 78% 1.2 mph ENE1.9 kmh ENE 2.3 mph3.7 kmh 31.86 in1078.9 mb - 0.00 in0.0 mm 0.01 in0.3 mm
01:10 PM 70.4°F21.3°C 63.2°F17.3°C 78% 2.3 mph NNE3.7 kmh NNE 3.5 mph5.6 kmh 31.86 in1078.9 mb - 0.00 in0.0 mm 0.01 in0.3 mm
01:15 PM 70.7°F21.5°C 63.5°F17.5°C 78% 2.3 mph E3.7 kmh E 3.5 mph5.6 kmh 31.86 in1078.9 mb - 0.00 in0.0 mm 0.01 in0.3 mm
01:20 PM 70.1°F21.2°C 62.1°F16.7°C 76% 3.5 mph NNE5.6 kmh NNE 3.5 mph5.6 kmh 31.86 in1078.9 mb - 0.00 in0.0 mm 0.01 in0.3 mm
01:25 PM 70.2°F21.2°C 61.5°F16.4°C 74% 5.8 mph NNE9.3 kmh NNE 6.9 mph11.1 kmh 31.86 in1078.9 mb - 0.00 in0.0 mm 0.01 in0.3 mm
01:30 PM 70.8°F21.6°C 63.2°F17.3°C 77% 2.3 mph NE3.7 kmh NE 3.5 mph5.6 kmh 31.86 in1078.9 mb - 0.00 in0.0 mm 0.01 in0.3 mm
01:35 PM 71.3°F21.8°C 63.7°F17.6°C 77% 2.3 mph NE3.7 kmh NE 2.3 mph3.7 kmh 31.86 in1078.9 mb - 0.00 in0.0 mm 0.01 in0.3 mm
01:40 PM 72.0°F22.2°C 64.4°F18.0°C 77% 4.6 mph N7.4 kmh N 6.9 mph11.1 kmh 31.86 in1078.9 mb - 0.00 in0.0 mm 0.01 in0.3 mm
01:45 PM 71.4°F21.9°C 64.2°F17.9°C 78% 3.5 mph NE5.6 kmh NE 3.5 mph5.6 kmh 31.86 in1078.9 mb - 0.00 in0.0 mm 0.01 in0.3 mm
01:50 PM 71.1°F21.7°C 63.5°F17.5°C 77% 3.5 mph NNE5.6 kmh NNE 3.5 mph5.6 kmh 31.86 in1078.9 mb - 0.00 in0.0 mm 0.01 in0.3 mm
01:55 PM 71.3°F21.8°C 64.4°F18.0°C 79% 1.2 mph NNE1.9 kmh NNE 4.6 mph7.4 kmh 31.86 in1078.9 mb - 0.00 in0.0 mm 0.01 in0.3 mm
02:00 PM 71.3°F21.8°C 64.4°F18.0°C 79% 3.5 mph NE5.6 kmh NE 2.3 mph3.7 kmh 31.86 in1078.9 mb - 0.00 in0.0 mm 0.01 in0.3 mm
02:10 PM 71.9°F22.2°C 63.1°F17.3°C 74% 1.2 mph E1.9 kmh E 1.2 mph1.9 kmh 31.86 in1078.9 mb - 0.00 in0.0 mm 0.01 in0.3 mm
02:15 PM 72.3°F22.4°C 63.6°F17.6°C 74% 1.2 mph ESE1.9 kmh ESE 1.2 mph1.9 kmh 31.86 in1078.9 mb - 0.00 in0.0 mm 0.01 in0.3 mm
02:20 PM 72.5°F22.5°C 63.7°F17.6°C 74% 3.5 mph N5.6 kmh N 4.6 mph7.4 kmh 31.86 in1078.9 mb - 0.00 in0.0 mm 0.01 in0.3 mm
02:25 PM 73.0°F22.8°C 64.6°F18.1°C 75% Calm Calm 3.5 mph5.6 kmh 31.86 in1078.9 mb - 0.00 in0.0 mm 0.01 in0.3 mm
02:30 PM 73.5°F23.1°C 65.1°F18.4°C 75% 3.5 mph N5.6 kmh N 5.8 mph9.3 kmh 31.86 in1078.9 mb - 0.00 in0.0 mm 0.01 in0.3 mm
02:35 PM 73.6°F23.1°C 64.8°F18.2°C 74% 1.2 mph E1.9 kmh E 2.3 mph3.7 kmh 31.86 in1078.9 mb - 0.00 in0.0 mm 0.01 in0.3 mm
02:40 PM 73.6°F23.1°C 65.2°F18.4°C 75% Calm Calm 3.5 mph5.6 kmh 31.86 in1078.9 mb - 0.00 in0.0 mm 0.01 in0.3 mm
02:45 PM 74.7°F23.7°C 63.8°F17.7°C 69% 3.5 mph NNE5.6 kmh NNE 3.5 mph5.6 kmh 31.86 in1078.9 mb - 0.00 in0.0 mm 0.01 in0.3 mm
02:50 PM 75.1°F23.9°C 64.3°F17.9°C 69% 2.3 mph NE3.7 kmh NE 3.5 mph5.6 kmh 31.86 in1078.9 mb - 0.00 in0.0 mm 0.01 in0.3 mm
02:55 PM 75.2°F24.0°C 65.5°F18.6°C 72% Calm Calm 2.3 mph3.7 kmh 31.86 in1078.9 mb - 0.00 in0.0 mm 0.01 in0.3 mm
03:00 PM 75.4°F24.1°C 64.1°F17.8°C 68% 3.5 mph N5.6 kmh N 3.5 mph5.6 kmh 31.86 in1078.9 mb - 0.00 in0.0 mm 0.01 in0.3 mm
03:10 PM 75.8°F24.3°C 65.4°F18.6°C 70% 1.2 mph ESE1.9 kmh ESE 1.2 mph1.9 kmh 31.86 in1078.9 mb - 0.00 in0.0 mm 0.01 in0.3 mm
03:15 PM 75.9°F24.4°C 65.4°F18.6°C 70% 2.3 mph N3.7 kmh N 3.5 mph5.6 kmh 31.86 in1078.9 mb - 0.00 in0.0 mm 0.01 in0.3 mm
03:20 PM 77.6°F25.3°C 66.2°F19.0°C 68% 1.2 mph S1.9 kmh S 1.2 mph1.9 kmh 31.86 in1078.9 mb - 0.00 in0.0 mm 0.01 in0.3 mm
03:25 PM 76.3°F24.6°C 67.0°F19.4°C 73% 1.2 mph S1.9 kmh S 3.5 mph5.6 kmh 31.86 in1078.9 mb - 0.00 in0.0 mm 0.01 in0.3 mm
03:30 PM 74.6°F23.7°C 66.5°F19.2°C 76% 3.5 mph S5.6 kmh S 4.6 mph7.4 kmh 31.86 in1078.9 mb - 0.00 in0.0 mm 0.01 in0.3 mm
03:35 PM 72.8°F22.7°C 65.5°F18.6°C 78% 3.5 mph SSW5.6 kmh SSW 4.6 mph7.4 kmh 31.86 in1078.9 mb - 0.00 in0.0 mm 0.01 in0.3 mm
03:40 PM 71.3°F21.8°C 65.5°F18.6°C 82% 4.6 mph S7.4 kmh S 4.6 mph7.4 kmh 31.86 in1078.9 mb - 0.00 in0.0 mm 0.01 in0.3 mm
03:45 PM 70.5°F21.4°C 65.1°F18.4°C 83% 4.6 mph S7.4 kmh S 5.8 mph9.3 kmh 31.86 in1078.9 mb - 0.00 in0.0 mm 0.01 in0.3 mm
03:50 PM 70.5°F21.4°C 65.1°F18.4°C 83% 3.5 mph S5.6 kmh S 3.5 mph5.6 kmh 31.86 in1078.9 mb - 0.00 in0.0 mm 0.01 in0.3 mm
03:55 PM 70.8°F21.6°C 65.4°F18.6°C 83% 3.5 mph S5.6 kmh S 4.6 mph7.4 kmh 31.86 in1078.9 mb - 0.00 in0.0 mm 0.01 in0.3 mm
04:00 PM 70.7°F21.5°C 64.9°F18.3°C 82% 4.6 mph SW7.4 kmh SW 4.6 mph7.4 kmh 31.86 in1078.9 mb - 0.00 in0.0 mm 0.01 in0.3 mm
04:10 PM 70.7°F21.5°C 64.9°F18.3°C 82% 4.6 mph SSW7.4 kmh SSW 4.6 mph7.4 kmh 31.86 in1078.9 mb - 0.00 in0.0 mm 0.01 in0.3 mm
04:15 PM 70.7°F21.5°C 65.3°F18.5°C 83% 4.6 mph SW7.4 kmh SW 4.6 mph7.4 kmh 31.86 in1078.9 mb - 0.00 in0.0 mm 0.01 in0.3 mm
04:20 PM 71.4°F21.9°C 65.2°F18.4°C 81% 3.5 mph SSW5.6 kmh SSW 4.6 mph7.4 kmh 31.86 in1078.9 mb - 0.00 in0.0 mm 0.01 in0.3 mm
04:25 PM 71.8°F22.1°C 65.3°F18.5°C 80% 3.5 mph S5.6 kmh S 3.5 mph5.6 kmh 31.86 in1078.9 mb - 0.00 in0.0 mm 0.01 in0.3 mm
04:30 PM 73.6°F23.1°C 66.0°F18.9°C 77% 2.3 mph SSW3.7 kmh SSW 3.5 mph5.6 kmh 31.86 in1078.9 mb - 0.00 in0.0 mm 0.01 in0.3 mm
04:35 PM 74.1°F23.4°C 66.0°F18.9°C 76% 2.3 mph S3.7 kmh S 3.5 mph5.6 kmh 31.86 in1078.9 mb - 0.00 in0.0 mm 0.01 in0.3 mm
04:40 PM 74.4°F23.6°C 66.7°F19.3°C 77% 3.5 mph SW5.6 kmh SW 3.5 mph5.6 kmh 31.86 in1078.9 mb - 0.00 in0.0 mm 0.01 in0.3 mm
04:45 PM 73.2°F22.9°C 65.9°F18.8°C 78% 3.5 mph SSW5.6 kmh SSW 3.5 mph5.6 kmh 31.86 in1078.9 mb - 0.00 in0.0 mm 0.01 in0.3 mm
04:50 PM 74.8°F23.8°C 66.7°F19.3°C 76% 3.5 mph SSW5.6 kmh SSW 3.5 mph5.6 kmh 31.86 in1078.9 mb - 0.00 in0.0 mm 0.01 in0.3 mm
04:55 PM 74.6°F23.7°C 66.9°F19.4°C 77% 2.3 mph SSW3.7 kmh SSW 3.5 mph5.6 kmh 31.86 in1078.9 mb - 0.00 in0.0 mm 0.01 in0.3 mm
05:00 PM 73.4°F23.0°C 66.5°F19.2°C 79% 2.3 mph SSW3.7 kmh SSW 3.5 mph5.6 kmh 31.86 in1078.9 mb - 0.00 in0.0 mm 0.01 in0.3 mm
05:10 PM 72.3°F22.4°C 66.1°F18.9°C 81% 3.5 mph S5.6 kmh S 4.6 mph7.4 kmh 31.86 in1078.9 mb - 0.00 in0.0 mm 0.01 in0.3 mm
05:15 PM 71.9°F22.2°C 65.8°F18.8°C 81% 4.6 mph SSW7.4 kmh SSW 4.6 mph7.4 kmh 31.86 in1078.9 mb - 0.00 in0.0 mm 0.01 in0.3 mm
05:20 PM 71.4°F21.9°C 65.6°F18.7°C 82% 4.6 mph SSW7.4 kmh SSW 4.6 mph7.4 kmh 31.86 in1078.9 mb - 0.00 in0.0 mm 0.01 in0.3 mm
05:25 PM 71.8°F22.1°C 66.0°F18.9°C 82% 3.5 mph SSW5.6 kmh SSW 3.5 mph5.6 kmh 31.86 in1078.9 mb - 0.00 in0.0 mm 0.01 in0.3 mm
05:30 PM 71.2°F21.8°C 65.8°F18.8°C 83% 3.5 mph S5.6 kmh S 3.5 mph5.6 kmh 31.86 in1078.9 mb - 0.00 in0.0 mm 0.01 in0.3 mm
05:35 PM 71.4°F21.9°C 65.6°F18.7°C 82% 3.5 mph SW5.6 kmh SW 4.6 mph7.4 kmh 31.86 in1078.9 mb - 0.00 in0.0 mm 0.01 in0.3 mm
05:40 PM 72.0°F22.2°C 65.8°F18.8°C 81% 3.5 mph SSW5.6 kmh SSW 4.6 mph7.4 kmh 31.86 in1078.9 mb - 0.00 in0.0 mm 0.01 in0.3 mm
05:45 PM 71.5°F21.9°C 65.3°F18.5°C 81% 3.5 mph SSW5.6 kmh SSW 4.6 mph7.4 kmh 31.86 in1078.9 mb - 0.00 in0.0 mm 0.01 in0.3 mm
05:50 PM 71.4°F21.9°C 65.6°F18.7°C 82% 3.5 mph SSW5.6 kmh SSW 3.5 mph5.6 kmh 31.86 in1078.9 mb - 0.00 in0.0 mm 0.01 in0.3 mm
05:55 PM 71.2°F21.8°C 65.4°F18.6°C 82% 4.6 mph SSW7.4 kmh SSW 5.8 mph9.3 kmh 31.86 in1078.9 mb - 0.00 in0.0 mm 0.01 in0.3 mm
06:00 PM 71.3°F21.8°C 65.5°F18.6°C 82% 4.6 mph SSW7.4 kmh SSW 4.6 mph7.4 kmh 31.86 in1078.9 mb - 0.00 in0.0 mm 0.01 in0.3 mm
06:10 PM 71.5°F21.9°C 65.7°F18.7°C 82% 4.6 mph SSW7.4 kmh SSW 5.8 mph9.3 kmh 31.86 in1078.9 mb - 0.00 in0.0 mm 0.01 in0.3 mm
06:15 PM 71.4°F21.9°C 65.6°F18.7°C 82% 5.8 mph SW9.3 kmh SW 5.8 mph9.3 kmh 31.86 in1078.9 mb - 0.00 in0.0 mm 0.01 in0.3 mm
06:20 PM 72.2°F22.3°C 66.1°F18.9°C 81% 3.5 mph SSW5.6 kmh SSW 4.6 mph7.4 kmh 31.86 in1078.9 mb - 0.00 in0.0 mm 0.01 in0.3 mm
06:25 PM 73.7°F23.2°C 67.2°F19.6°C 80% 3.5 mph S5.6 kmh S 2.3 mph3.7 kmh 31.86 in1078.9 mb - 0.00 in0.0 mm 0.01 in0.3 mm
06:30 PM 75.1°F23.9°C 67.1°F19.5°C 76% 3.5 mph WSW5.6 kmh WSW 4.6 mph7.4 kmh 31.86 in1078.9 mb - 0.00 in0.0 mm 0.01 in0.3 mm
06:35 PM 74.1°F23.4°C 66.4°F19.1°C 77% 3.5 mph SSW5.6 kmh SSW 3.5 mph5.6 kmh 31.86 in1078.9 mb - 0.00 in0.0 mm 0.01 in0.3 mm
06:40 PM 72.8°F22.7°C 65.9°F18.8°C 79% 3.5 mph SW5.6 kmh SW 4.6 mph7.4 kmh 31.86 in1078.9 mb - 0.00 in0.0 mm 0.01 in0.3 mm
06:45 PM 71.5°F21.9°C 65.7°F18.7°C 82% 3.5 mph SW5.6 kmh SW 4.6 mph7.4 kmh 31.86 in1078.9 mb - 0.00 in0.0 mm 0.01 in0.3 mm
06:50 PM 70.8°F21.6°C 65.3°F18.5°C 83% 3.5 mph SW5.6 kmh SW 4.6 mph7.4 kmh 31.86 in1078.9 mb - 0.00 in0.0 mm 0.01 in0.3 mm
06:55 PM 70.4°F21.3°C 65.3°F18.5°C 84% 3.5 mph SW5.6 kmh SW 3.5 mph5.6 kmh 31.86 in1078.9 mb - 0.00 in0.0 mm 0.01 in0.3 mm
07:00 PM 70.2°F21.2°C 65.1°F18.4°C 84% 3.5 mph SSW5.6 kmh SSW 3.5 mph5.6 kmh 31.86 in1078.9 mb - 0.00 in0.0 mm 0.01 in0.3 mm
07:10 PM 71.6°F22.0°C 66.1°F18.9°C 83% 2.3 mph SSW3.7 kmh SSW 3.5 mph5.6 kmh 31.86 in1078.9 mb - 0.00 in0.0 mm 0.01 in0.3 mm
07:15 PM 71.8°F22.1°C 66.0°F18.9°C 82% 3.5 mph SW5.6 kmh SW 3.5 mph5.6 kmh 31.86 in1078.9 mb - 0.00 in0.0 mm 0.01 in0.3 mm
07:20 PM 71.5°F21.9°C 65.7°F18.7°C 82% 2.3 mph SSW3.7 kmh SSW 2.3 mph3.7 kmh 31.86 in1078.9 mb - 0.00 in0.0 mm 0.01 in0.3 mm
07:25 PM 69.3°F20.7°C 65.0°F18.3°C 86% 3.5 mph SSW5.6 kmh SSW 3.5 mph5.6 kmh 31.86 in1078.9 mb - 0.00 in0.0 mm 0.01 in0.3 mm
07:30 PM 68.5°F20.3°C 64.8°F18.2°C 88% 3.5 mph SSW5.6 kmh SSW 4.6 mph7.4 kmh 31.86 in1078.9 mb - 0.00 in0.0 mm 0.01 in0.3 mm
07:35 PM 68.4°F20.2°C 65.0°F18.3°C 89% 3.5 mph SSW5.6 kmh SSW 3.5 mph5.6 kmh 31.86 in1078.9 mb - 0.00 in0.0 mm 0.01 in0.3 mm
07:40 PM 68.6°F20.3°C 64.9°F18.3°C 88% 2.3 mph SW3.7 kmh SW 2.3 mph3.7 kmh 31.86 in1078.9 mb - 0.00 in0.0 mm 0.01 in0.3 mm
07:45 PM 68.9°F20.5°C 65.2°F18.4°C 88% 2.3 mph SW3.7 kmh SW 2.3 mph3.7 kmh 31.86 in1078.9 mb - 0.00 in0.0 mm 0.01 in0.3 mm
07:50 PM 68.9°F20.5°C 64.5°F18.1°C 86% 2.3 mph SSW3.7 kmh SSW 3.5 mph5.6 kmh 31.86 in1078.9 mb - 0.00 in0.0 mm 0.01 in0.3 mm
07:55 PM 68.0°F20.0°C 64.3°F17.9°C 88% 3.5 mph SSW5.6 kmh SSW 3.5 mph5.6 kmh 31.86 in1078.9 mb - 0.00 in0.0 mm 0.01 in0.3 mm
08:00 PM 67.8°F19.9°C 64.1°F17.8°C 88% 3.5 mph SSW5.6 kmh SSW 3.5 mph5.6 kmh 31.86 in1078.9 mb - 0.00 in0.0 mm 0.01 in0.3 mm
08:10 PM 67.7°F19.8°C 64.0°F17.8°C 88% 2.3 mph SSW3.7 kmh SSW 3.5 mph5.6 kmh 31.86 in1078.9 mb - 0.00 in0.0 mm 0.01 in0.3 mm
08:15 PM 67.7°F19.8°C 64.3°F17.9°C 89% 2.3 mph SSW3.7 kmh SSW 2.3 mph3.7 kmh 31.86 in1078.9 mb - 0.00 in0.0 mm 0.01 in0.3 mm
08:20 PM 67.5°F19.7°C 64.1°F17.8°C 89% 2.3 mph SSW3.7 kmh SSW 2.3 mph3.7 kmh 31.86 in1078.9 mb - 0.00 in0.0 mm 0.01 in0.3 mm
08:25 PM 67.1°F19.5°C 64.0°F17.8°C 90% 2.3 mph SSW3.7 kmh SSW 3.5 mph5.6 kmh 31.86 in1078.9 mb - 0.00 in0.0 mm 0.01 in0.3 mm
08:30 PM 67.1°F19.5°C 64.4°F18.0°C 91% 2.3 mph SSW3.7 kmh SSW 2.3 mph3.7 kmh 31.86 in1078.9 mb - 0.00 in0.0 mm 0.01 in0.3 mm
08:35 PM 67.1°F19.5°C 64.4°F18.0°C 91% 2.3 mph S3.7 kmh S 2.3 mph3.7 kmh 31.86 in1078.9 mb - 0.00 in0.0 mm 0.01 in0.3 mm
08:40 PM 67.1°F19.5°C 64.4°F18.0°C 91% Calm Calm 2.3 mph3.7 kmh 31.86 in1078.9 mb - 0.00 in0.0 mm 0.01 in0.3 mm
08:45 PM 66.9°F19.4°C 64.2°F17.9°C 91% Calm Calm -- 31.86 in1078.9 mb - 0.00 in0.0 mm 0.01 in0.3 mm
08:50 PM 66.9°F19.4°C 64.2°F17.9°C 91% Calm Calm -- 31.86 in1078.9 mb - 0.00 in0.0 mm 0.01 in0.3 mm
08:55 PM 66.8°F19.3°C 63.8°F17.7°C 90% Calm Calm -- 31.86 in1078.9 mb - 0.00 in0.0 mm 0.01 in0.3 mm
09:00 PM 66.6°F19.2°C 63.6°F17.6°C 90% 1.2 mph SW1.9 kmh SW 1.2 mph1.9 kmh 31.86 in1078.9 mb - 0.00 in0.0 mm 0.01 in0.3 mm
09:10 PM 65.9°F18.8°C 63.2°F17.3°C 91% Calm Calm -- 31.86 in1078.9 mb - 0.00 in0.0 mm 0.01 in0.3 mm
09:15 PM 65.6°F18.7°C 62.9°F17.2°C 91% Calm Calm 2.3 mph3.7 kmh 31.86 in1078.9 mb - 0.00 in0.0 mm 0.01 in0.3 mm
09:20 PM 65.3°F18.5°C 62.9°F17.2°C 92% Calm Calm -- 31.86 in1078.9 mb - 0.00 in0.0 mm 0.01 in0.3 mm
09:25 PM 65.0°F18.3°C 62.6°F17.0°C 92% Calm Calm -- 31.86 in1078.9 mb - 0.00 in0.0 mm 0.01 in0.3 mm
09:30 PM 64.6°F18.1°C 62.8°F17.1°C 94% Calm Calm -- 31.86 in1078.9 mb - 0.00 in0.0 mm 0.01 in0.3 mm
09:35 PM 64.3°F17.9°C 62.8°F17.1°C 95% Calm Calm -- 31.86 in1078.9 mb - 0.00 in0.0 mm 0.01 in0.3 mm
09:40 PM 64.1°F17.8°C 62.9°F17.2°C 96% Calm Calm -- 31.86 in1078.9 mb - 0.00 in0.0 mm 0.01 in0.3 mm
09:45 PM 63.9°F17.7°C 62.7°F17.1°C 96% Calm Calm 1.2 mph1.9 kmh 31.86 in1078.9 mb - 0.00 in0.0 mm 0.01 in0.3 mm
09:50 PM 63.9°F17.7°C 63.0°F17.2°C 97% Calm Calm -- 31.86 in1078.9 mb - 0.00 in0.0 mm 0.01 in0.3 mm
09:55 PM 63.6°F17.6°C 62.7°F17.1°C 97% Calm Calm -- 31.86 in1078.9 mb - 0.00 in0.0 mm 0.01 in0.3 mm
10:00 PM 63.3°F17.4°C 62.7°F17.1°C 98% 1.2 mph N1.9 kmh N 2.3 mph3.7 kmh 31.86 in1078.9 mb - 0.00 in0.0 mm 0.01 in0.3 mm
10:10 PM 63.0°F17.2°C 62.7°F17.1°C 99% 2.3 mph NNW3.7 kmh NNW 2.3 mph3.7 kmh 31.86 in1078.9 mb - 0.00 in0.0 mm 0.01 in0.3 mm
10:15 PM 63.0°F17.2°C 62.7°F17.1°C 99% 1.2 mph NNW1.9 kmh NNW 2.3 mph3.7 kmh 31.86 in1078.9 mb - 0.00 in0.0 mm 0.01 in0.3 mm
10:20 PM 63.0°F17.2°C 62.7°F17.1°C 99% 2.3 mph NNW3.7 kmh NNW 2.3 mph3.7 kmh 31.86 in1078.9 mb - 0.00 in0.0 mm 0.01 in0.3 mm
10:25 PM 63.0°F17.2°C 62.7°F17.1°C 99% 1.2 mph N1.9 kmh N 2.3 mph3.7 kmh 31.86 in1078.9 mb - 0.00 in0.0 mm 0.01 in0.3 mm
10:30 PM 62.8°F17.1°C 62.5°F16.9°C 99% 2.3 mph N3.7 kmh N 2.3 mph3.7 kmh 31.86 in1078.9 mb - 0.00 in0.0 mm 0.01 in0.3 mm
10:35 PM 62.8°F17.1°C 62.5°F16.9°C 99% 2.3 mph NW3.7 kmh NW 3.5 mph5.6 kmh 31.86 in1078.9 mb - 0.00 in0.0 mm 0.01 in0.3 mm
10:40 PM 62.8°F17.1°C 62.5°F16.9°C 99% 2.3 mph NW3.7 kmh NW 3.5 mph5.6 kmh 31.86 in1078.9 mb - 0.00 in0.0 mm 0.01 in0.3 mm
10:45 PM 63.0°F17.2°C 62.7°F17.1°C 99% 2.3 mph N3.7 kmh N 3.5 mph5.6 kmh 31.86 in1078.9 mb - 0.00 in0.0 mm 0.01 in0.3 mm
10:50 PM 63.0°F17.2°C 62.7°F17.1°C 99% 2.3 mph N3.7 kmh N 2.3 mph3.7 kmh 31.86 in1078.9 mb - 0.00 in0.0 mm 0.01 in0.3 mm
10:55 PM 63.0°F17.2°C 62.7°F17.1°C 99% 2.3 mph WNW3.7 kmh WNW 3.5 mph5.6 kmh 31.86 in1078.9 mb - 0.00 in0.0 mm 0.01 in0.3 mm
11:00 PM 63.2°F17.3°C 62.6°F17.0°C 98% 2.3 mph NW3.7 kmh NW 3.5 mph5.6 kmh 31.86 in1078.9 mb - 0.00 in0.0 mm 0.01 in0.3 mm
11:10 PM 63.2°F17.3°C 62.3°F16.8°C 97% 2.3 mph N3.7 kmh N 2.3 mph3.7 kmh 31.86 in1078.9 mb - 0.00 in0.0 mm 0.01 in0.3 mm
11:15 PM 63.2°F17.3°C 62.3°F16.8°C 97% 2.3 mph N3.7 kmh N 2.3 mph3.7 kmh 31.86 in1078.9 mb - 0.00 in0.0 mm 0.01 in0.3 mm
11:20 PM 63.2°F17.3°C 62.3°F16.8°C 97% 2.3 mph N3.7 kmh N 2.3 mph3.7 kmh 31.86 in1078.9 mb - 0.00 in0.0 mm 0.01 in0.3 mm
11:25 PM 63.2°F17.3°C 62.3°F16.8°C 97% 2.3 mph NNW3.7 kmh NNW 3.5 mph5.6 kmh 31.86 in1078.9 mb - 0.00 in0.0 mm 0.01 in0.3 mm
11:30 PM 63.2°F17.3°C 62.3°F16.8°C 97% 2.3 mph N3.7 kmh N 2.3 mph3.7 kmh 31.86 in1078.9 mb - 0.00 in0.0 mm 0.01 in0.3 mm
11:35 PM 63.2°F17.3°C 62.3°F16.8°C 97% 2.3 mph N3.7 kmh N 2.3 mph3.7 kmh 31.86 in1078.9 mb - 0.00 in0.0 mm 0.01 in0.3 mm
11:40 PM 63.2°F17.3°C 62.3°F16.8°C 97% 3.5 mph NNE5.6 kmh NNE 3.5 mph5.6 kmh 31.86 in1078.9 mb - 0.00 in0.0 mm 0.01 in0.3 mm
11:45 PM 63.2°F17.3°C 62.3°F16.8°C 97% 2.3 mph N3.7 kmh N 2.3 mph3.7 kmh 31.86 in1078.9 mb - 0.00 in0.0 mm 0.01 in0.3 mm
11:50 PM 63.2°F17.3°C 62.3°F16.8°C 97% 3.5 mph N5.6 kmh N 3.5 mph5.6 kmh 31.86 in1078.9 mb - 0.00 in0.0 mm 0.01 in0.3 mm
11:55 PM 63.0°F17.2°C 62.1°F16.7°C 97% 3.5 mph N5.6 kmh N 3.5 mph5.6 kmh 31.86 in1078.9 mb - 0.00 in0.0 mm 0.01 in0.3 mm